Terminal Aerodrome Forecast
Issued by NWS La Crosse, WI

Home | Current Version | Previous Version | Text Only | Print | Product List | Glossary On
Versions: 1 2 3 4 5 6 7 8 9 10 11 12 13
000
FTUS43 KARX 230520
TAFRST
TAF
KRST 230520Z 2306/2406 16014KT P6SM OVC070
     FM231400 16016G24KT P6SM OVC045
     FM232100 16015G25KT P6SM VCSH OVC019
     FM240400 17012G21KT 6SM -SHRA OVC015 WS017/22050KT=

USA.gov is the U.S. government's official web portal to all federal, state and local government web resources and services.